EDDHEDVE

Guest
Details From EDDH - Hamburg
To EDVE - Braunschweig-Wolfsburg
Flight Number -
Tags generated
Created
Modified
Stats Distance 82 nm / 152 km
Max Altitude 9,900 ft / 3,018 m
Waypoints 3
Social Downloads 0
Likes 0
Share VATSIM

Download

Looking for another format? Having issues loading an existing format? Contact us
Advertisement - Login to hide

Notes

Basic altitude profile: - Ascent Rate: 2500ft/min - Ascent Speed: 250kts - Cruise Altitude: 35000ft - Cruise Speed: 420kts - Descent Rate: 1500ft/min - Descent Speed: 250kts Options: - Use NATs: yes - Use PACOTS: yes - Use low airways: no - Use high airways: yes

Route

EDDH GESTO EDVE

ID Type Via Altitude Latitude Longitude Leg Dist Tot Dist Heading (true) Name
O EDDH APT - 0 ft / 0 m 53.63367˚ 9.98524˚ - 0 nm - Hamburg
GESTO FIX - 9,900 ft / 3,018 m 53.17500˚ 10.08361˚ 27 nm 27 nm 173° / 173° -
O EDVE APT - 0 ft / 0 m 52.31844˚ 10.55474˚ 54 nm 81 nm 161° / 162° Braunschweig-Wolfsburg

Altitude Profile

Advertisement - Login to hide

EDDH

Details ICAO EDDH (HAM)
Name Hamburg
Region Germany - Civil
Timezone Europe/Berlin (UTC+1.0)
Stats Elevation 53 ft / 16 m (AMSL)
Location 53.633665° 9.985235°
Runways 2
Magnetic Variation 2.786° E

METAR

EDDH 161620Z 26007KT 9999 FEW024 03/01 Q1007 NOSIG

Decode

TAF

TAF EDDH 161100Z 1612/1718 28006KT 9999 BKN030 PROB30 TEMPO 1617/1623 BKN012 BECMG 1711/1713 22004KT

Decode

Departure Runways

ID Width Length Bearing (true) Bearing (mag) Surface Threshold Offset Overrun Length
05 151 ft / 46 m 10,647 ft / 3,245 m 50.18° 47.39° Asphalt 978 ft / 298 m 194 ft / 59 m
15 151 ft / 46 m 12,013 ft / 3,662 m 152.89° 150.10° Asphalt 0 ft / 0 m 194 ft / 59 m
23 151 ft / 46 m 10,647 ft / 3,245 m 230.22° 227.43° Asphalt 509 ft / 155 m 240 ft / 73 m
33 151 ft / 46 m 12,013 ft / 3,662 m 332.91° 330.12° Asphalt 1,463 ft / 446 m 164 ft / 50 m

EDVE

Details ICAO EDVE (BWE)
Name Braunschweig-Wolfsburg
Region Germany - Civil
Timezone Europe/Berlin (UTC+1.0)
Stats Elevation 295 ft / 90 m (AMSL)
Location 52.318435° 10.554742°
Runways 2
Magnetic Variation 2.940° E

METAR

EDVE 161620Z 27008KT 240V300 9999 BKN014 OVC042 03/03 Q1009

Decode

TAF

Not found

Destination Runways

ID Width Length Bearing (true) Bearing (mag) Surface Threshold Offset Overrun Length
08 98 ft / 30 m 5,496 ft / 1,675 m 84.98° 82.04° Asphalt 984 ft / 300 m 0 ft / 0 m
08R 98 ft / 30 m 2,950 ft / 899 m 84.56° 81.62° Grass 0 ft / 0 m 0 ft / 0 m
26 98 ft / 30 m 5,496 ft / 1,675 m 265.00° 262.06° Asphalt 591 ft / 180 m 190 ft / 58 m
26L 98 ft / 30 m 2,950 ft / 899 m 264.57° 261.63° Grass 0 ft / 0 m 0 ft / 0 m

Approach Navaids

Runway Type Ident Frequency Range Bearing (true) Bearing (mag) Slope Elevation
26 Localiser BWG 108.50 MHz 18 nm / 33 km 264.89° 261.95° - 295 ft / 90 m (AMSL)
26 Glidescope BWG 108.50 MHz 10 nm / 19 km 265.00° 262.06° 3.50° 295 ft / 90 m (AMSL)

Popular Alternatives